createdAt,value
2024-05-09T00:01:59.167Z,5.95
2024-05-09T00:04:30.609Z,5.75
2024-05-09T00:07:01.438Z,5.47
2024-05-09T00:09:33.030Z,6.10
2024-05-09T00:12:04.094Z,5.55
2024-05-09T00:14:35.644Z,6.15
2024-05-09T00:17:10.058Z,6.05
2024-05-09T00:19:42.798Z,5.38
2024-05-09T00:22:13.675Z,6.32
2024-05-09T00:24:45.011Z,5.05
2024-05-09T00:27:15.904Z,6.28
2024-05-09T00:29:47.213Z,6.30
2024-05-09T00:32:20.982Z,5.78
2024-05-09T00:34:53.749Z,6.78
2024-05-09T00:37:24.785Z,12.40
2024-05-09T00:39:56.536Z,13.65
2024-05-09T00:42:27.500Z,10.02
2024-05-09T00:44:58.759Z,8.20
2024-05-09T00:47:32.518Z,8.25
2024-05-09T00:50:07.636Z,7.80
2024-05-09T00:52:43.986Z,7.60
2024-05-09T00:55:16.189Z,9.52
2024-05-09T00:57:47.843Z,9.60
2024-05-09T01:00:27.124Z,8.18
2024-05-09T01:03:10.970Z,7.57
2024-05-09T01:05:44.584Z,7.03
2024-05-09T01:08:16.695Z,8.35
2024-05-09T01:10:48.896Z,9.18
2024-05-09T01:13:19.839Z,8.00
2024-05-09T01:15:54.014Z,7.32
2024-05-09T01:18:27.827Z,5.90
2024-05-09T01:20:59.148Z,6.30
2024-05-09T01:23:32.781Z,5.53
2024-05-09T01:26:04.121Z,5.13
2024-05-09T01:28:34.963Z,5.32
2024-05-09T01:31:06.471Z,5.57
2024-05-09T01:33:37.683Z,5.95
2024-05-09T01:36:09.723Z,5.13
2024-05-09T01:38:43.201Z,5.72
2024-05-09T01:41:14.521Z,5.28
2024-05-09T01:43:45.432Z,5.05
2024-05-09T01:46:17.669Z,6.10
2024-05-09T01:48:49.084Z,5.85
2024-05-09T01:51:20.764Z,4.95
2024-05-09T01:53:56.978Z,5.63
2024-05-09T01:56:28.402Z,6.00
2024-05-09T01:58:59.442Z,5.75
2024-05-09T02:01:30.808Z,5.45
2024-05-09T02:04:21.819Z,5.05
2024-05-09T02:06:53.488Z,5.97
2024-05-09T02:09:27.085Z,6.47
2024-05-09T02:11:58.584Z,5.50
2024-05-09T02:14:29.638Z,5.20
2024-05-09T02:17:01.073Z,5.85
2024-05-09T02:19:32.141Z,4.88
2024-05-09T02:22:03.545Z,5.35
2024-05-09T02:24:37.035Z,5.25
2024-05-09T02:27:08.593Z,4.95
2024-05-09T02:29:39.624Z,6.28
2024-05-09T02:32:11.158Z,4.88
2024-05-09T02:34:42.020Z,4.45
2024-05-09T02:37:10.661Z,4.82
2024-05-09T02:39:44.019Z,6.13
2024-05-09T02:42:12.631Z,4.82
2024-05-09T02:44:43.417Z,5.28
2024-05-09T02:47:12.144Z,4.47
2024-05-09T02:49:43.210Z,4.18
2024-05-09T02:52:11.966Z,4.55
2024-05-09T02:54:45.362Z,4.95
2024-05-09T02:57:14.207Z,4.88
2024-05-09T02:59:46.201Z,4.55
2024-05-09T03:02:14.985Z,5.10
2024-05-09T03:04:45.950Z,5.07
2024-05-09T03:07:14.762Z,4.63
2024-05-09T03:09:51.980Z,5.13
2024-05-09T03:12:20.695Z,4.88
2024-05-09T03:14:53.682Z,4.82
2024-05-09T03:17:24.314Z,4.40
2024-05-09T03:19:55.695Z,5.78
2024-05-09T03:22:24.428Z,4.95
2024-05-09T03:24:57.841Z,5.20
2024-05-09T03:27:26.578Z,4.57
2024-05-09T03:29:57.364Z,5.15
2024-05-09T03:32:29.163Z,4.93
2024-05-09T03:34:57.655Z,4.32
2024-05-09T03:37:29.090Z,5.43
2024-05-09T03:40:02.931Z,4.68
2024-05-09T03:42:40.863Z,4.15
2024-05-09T03:45:09.407Z,4.78
2024-05-09T03:47:41.000Z,4.23
2024-05-09T03:50:17.626Z,4.63
2024-05-09T03:52:53.590Z,4.47
2024-05-09T03:55:24.402Z,4.93
2024-05-09T03:57:55.674Z,4.88
2024-05-09T04:00:31.313Z,5.82
2024-05-09T04:03:11.532Z,5.90
2024-05-09T04:05:42.788Z,4.93
2024-05-09T04:08:18.134Z,4.90
2024-05-09T04:10:49.278Z,4.65
2024-05-09T04:13:20.728Z,4.78
2024-05-09T04:15:49.004Z,5.05
2024-05-09T04:18:20.915Z,5.43
2024-05-09T04:20:49.379Z,6.10
2024-05-09T04:23:20.969Z,6.70
2024-05-09T04:25:51.914Z,5.20
2024-05-09T04:28:24.342Z,5.15
2024-05-09T04:30:52.525Z,5.35
2024-05-09T04:33:23.937Z,4.55
2024-05-09T04:35:53.609Z,4.30
2024-05-09T04:38:24.952Z,4.43
2024-05-09T04:40:55.868Z,4.22
2024-05-09T04:43:27.506Z,4.18
2024-05-09T04:45:55.659Z,4.53
2024-05-09T04:48:27.300Z,4.00
2024-05-09T04:50:55.647Z,4.15
2024-05-09T04:53:27.261Z,4.00
2024-05-09T04:55:58.276Z,5.15
2024-05-09T04:58:29.629Z,3.75
2024-05-09T05:00:58.057Z,3.58
2024-05-09T05:03:29.464Z,2.97
2024-05-09T05:05:57.982Z,4.13
2024-05-09T05:08:29.788Z,4.35
2024-05-09T05:11:00.973Z,4.20
2024-05-09T05:13:36.738Z,3.20
2024-05-09T05:16:09.376Z,4.63
2024-05-09T05:18:38.194Z,3.35
2024-05-09T05:21:09.730Z,5.03
2024-05-09T05:23:38.500Z,2.97
2024-05-09T05:26:12.151Z,2.60
2024-05-09T05:28:40.816Z,3.50
2024-05-09T05:31:11.797Z,3.20
2024-05-09T05:33:40.506Z,4.10
2024-05-09T05:36:12.315Z,4.40
2024-05-09T05:38:41.122Z,4.13
2024-05-09T05:41:17.620Z,3.58
2024-05-09T05:43:46.718Z,4.28
2024-05-09T05:46:17.585Z,3.60
2024-05-09T05:48:46.467Z,3.75
2024-05-09T05:51:17.482Z,4.85
2024-05-09T05:53:46.583Z,3.53
2024-05-09T05:56:20.229Z,3.30
2024-05-09T05:58:49.988Z,3.03
2024-05-09T06:01:20.908Z,2.70
2024-05-09T06:03:49.678Z,2.85
2024-05-09T06:06:20.576Z,3.08
2024-05-09T06:08:49.351Z,4.00
2024-05-09T06:11:22.838Z,2.42
2024-05-09T06:13:51.496Z,2.90
2024-05-09T06:16:22.450Z,1.60
2024-05-09T06:18:51.260Z,1.92
2024-05-09T06:21:22.488Z,2.42
2024-05-09T06:23:51.289Z,1.50
2024-05-09T06:26:24.765Z,2.35
2024-05-09T06:28:53.443Z,1.92
2024-05-09T06:31:24.357Z,1.30
2024-05-09T06:33:53.181Z,1.80
2024-05-09T06:36:24.110Z,1.98
2024-05-09T06:38:52.894Z,2.10
2024-05-09T06:41:26.465Z,1.70
2024-05-09T06:43:55.353Z,2.03
2024-05-09T06:46:26.760Z,1.88
2024-05-09T06:48:55.751Z,1.77
2024-05-09T06:51:26.762Z,1.83
2024-05-09T06:53:55.751Z,1.98
2024-05-09T06:56:29.440Z,1.60
2024-05-09T06:58:58.180Z,1.60
2024-05-09T07:01:29.069Z,1.80
2024-05-09T07:03:57.924Z,2.25
2024-05-09T07:06:28.829Z,2.22
2024-05-09T07:08:57.508Z,1.75
2024-05-09T07:11:31.664Z,3.47
2024-05-09T07:14:00.610Z,1.88
2024-05-09T07:16:31.461Z,1.90
2024-05-09T07:19:00.251Z,2.10
2024-05-09T07:21:32.447Z,2.80
2024-05-09T07:24:02.278Z,1.88
2024-05-09T07:26:35.853Z,3.22
2024-05-09T07:29:04.903Z,1.77
2024-05-09T07:31:35.782Z,1.85
2024-05-09T07:34:04.637Z,2.35
2024-05-09T07:36:35.501Z,3.23
2024-05-09T07:39:05.933Z,2.03
2024-05-09T07:41:39.833Z,2.20
2024-05-09T07:44:08.889Z,1.80
2024-05-09T07:47:47.664Z,1.67
2024-05-09T07:53:25.392Z,1.63
2024-05-09T07:54:51.014Z,1.80
2024-05-09T07:57:24.635Z,2.38
2024-05-09T07:59:53.644Z,3.85
2024-05-09T08:02:24.551Z,1.30
2024-05-09T08:04:53.643Z,1.95
2024-05-09T08:07:24.682Z,1.98
2024-05-09T08:09:54.229Z,1.85
2024-05-09T08:12:27.917Z,2.67
2024-05-09T08:14:56.648Z,2.28
2024-05-09T08:17:27.621Z,1.92
2024-05-09T08:19:56.397Z,2.00
2024-05-09T08:22:30.646Z,1.98
2024-05-09T08:24:59.519Z,1.80
2024-05-09T08:27:32.986Z,1.97
2024-05-09T08:30:01.841Z,2.10
2024-05-09T08:32:34.868Z,2.67
2024-05-09T08:35:03.949Z,2.45
2024-05-09T08:37:38.739Z,2.28
2024-05-09T08:40:16.674Z,2.17
2024-05-09T08:42:56.236Z,2.13
2024-05-09T08:45:25.995Z,2.10
2024-05-09T08:50:35.375Z,2.33
2024-05-09T08:53:09.639Z,2.53
2024-05-09T08:55:41.787Z,2.17
2024-05-09T08:58:19.693Z,2.13
2024-05-09T09:00:49.784Z,2.45
2024-05-09T09:03:25.071Z,1.90
2024-05-09T09:06:05.951Z,2.38
2024-05-09T09:08:36.761Z,3.45
2024-05-09T09:11:05.942Z,2.60
2024-05-09T09:13:39.318Z,2.53
2024-05-09T09:16:08.611Z,1.95
2024-05-09T09:18:39.586Z,2.25
2024-05-09T09:21:11.610Z,2.10
2024-05-09T09:23:42.983Z,2.20
2024-05-09T09:26:16.812Z,2.15
2024-05-09T09:28:50.885Z,2.53
2024-05-09T09:31:20.000Z,2.60
2024-05-09T09:33:51.054Z,2.15
2024-05-09T09:36:19.997Z,2.88
2024-05-09T09:38:51.390Z,3.00
2024-05-09T09:41:26.022Z,2.63
2024-05-09T09:44:01.594Z,2.78
2024-05-09T09:46:31.276Z,2.28
2024-05-09T09:51:32.258Z,2.60
2024-05-09T09:54:06.455Z,2.25
2024-05-09T09:56:39.219Z,2.60
2024-05-09T09:59:15.515Z,2.33
2024-05-09T10:01:46.031Z,2.90
2024-05-09T10:04:19.149Z,1.83
2024-05-09T10:06:53.201Z,2.40
2024-05-09T10:09:24.589Z,2.72
2024-05-09T10:11:59.739Z,2.70
2024-05-09T10:14:42.494Z,2.65
2024-05-09T10:17:11.309Z,3.33
2024-05-09T10:19:42.172Z,2.60
2024-05-09T10:22:11.241Z,4.72
2024-05-09T10:24:53.396Z,3.05
2024-05-09T10:27:29.465Z,2.53
2024-05-09T10:30:09.108Z,2.65
2024-05-09T10:32:44.999Z,2.97
2024-05-09T10:35:16.583Z,2.67
2024-05-09T10:37:46.744Z,2.58
2024-05-09T10:40:26.017Z,2.45
2024-05-09T10:43:04.534Z,2.17
2024-05-09T10:45:41.695Z,3.15
2024-05-09T10:48:11.246Z,2.50
2024-05-09T10:50:43.930Z,2.35
2024-05-09T10:53:12.707Z,2.22
2024-05-09T10:55:43.469Z,2.30
2024-05-09T10:58:18.304Z,3.00
2024-05-09T11:00:52.110Z,1.88
2024-05-09T11:03:21.672Z,2.58
2024-05-09T11:05:52.836Z,2.88
2024-05-09T11:08:22.618Z,2.45
2024-05-09T11:10:55.272Z,2.85
2024-05-09T11:13:28.123Z,1.95
2024-05-09T11:16:02.885Z,2.88
2024-05-09T11:18:36.496Z,2.58
2024-05-09T11:21:15.756Z,2.50
2024-05-09T11:23:44.429Z,2.58
2024-05-09T11:26:15.730Z,2.03
2024-05-09T11:28:45.629Z,2.53
2024-05-09T11:31:19.420Z,1.98
2024-05-09T11:33:48.393Z,3.00
2024-05-09T11:36:19.362Z,2.70
2024-05-09T11:38:48.192Z,2.70
2024-05-09T11:41:21.074Z,2.90
2024-05-09T11:43:50.950Z,2.30
2024-05-09T11:46:24.914Z,2.03
2024-05-09T11:48:56.488Z,2.50
2024-05-09T11:51:24.874Z,2.85
2024-05-09T11:53:57.288Z,2.10
2024-05-09T11:56:25.584Z,2.22
2024-05-09T11:58:57.095Z,3.33
2024-05-09T12:01:28.352Z,3.22
2024-05-09T12:04:01.385Z,2.78
2024-05-09T12:06:30.187Z,2.30
2024-05-09T12:09:01.712Z,3.40
2024-05-09T12:11:30.139Z,2.53
2024-05-09T12:14:01.331Z,2.80
2024-05-09T12:16:32.492Z,2.15
2024-05-09T12:19:04.040Z,3.03
2024-05-09T12:21:32.558Z,3.35
2024-05-09T12:24:03.827Z,2.97
2024-05-09T12:26:32.554Z,2.40
2024-05-09T12:29:03.748Z,2.40
2024-05-09T12:31:34.786Z,2.63
2024-05-09T12:34:06.193Z,2.50
2024-05-09T12:36:34.740Z,2.83
2024-05-09T12:39:06.450Z,4.97
2024-05-09T12:41:34.790Z,2.72
2024-05-09T12:44:05.990Z,2.50
2024-05-09T12:46:37.097Z,3.05
2024-05-09T12:49:08.628Z,3.00
2024-05-09T12:51:36.992Z,2.10
2024-05-09T12:54:08.373Z,5.25
2024-05-09T12:56:36.764Z,2.58
2024-05-09T12:59:07.929Z,2.55
2024-05-09T13:01:38.936Z,3.85
2024-05-09T13:04:10.462Z,3.13
2024-05-09T13:06:39.016Z,4.15
2024-05-09T13:09:10.311Z,4.88
2024-05-09T13:11:38.873Z,2.58
2024-05-09T13:14:10.146Z,4.07
2024-05-09T13:16:41.197Z,2.80
2024-05-09T13:19:12.633Z,2.70
2024-05-09T13:21:40.954Z,3.05
2024-05-09T13:24:12.228Z,2.58
2024-05-09T13:26:40.736Z,2.53
2024-05-09T13:29:11.928Z,2.63
2024-05-09T13:31:42.958Z,2.70
2024-05-09T13:34:14.345Z,2.35
2024-05-09T13:36:42.941Z,2.15
2024-05-09T13:39:14.153Z,2.60
2024-05-09T13:41:42.476Z,3.40
2024-05-09T13:44:13.721Z,2.78
2024-05-09T13:46:44.906Z,2.85
2024-05-09T13:49:17.591Z,2.55
2024-05-09T13:51:46.110Z,2.90
2024-05-09T13:54:20.179Z,2.47
2024-05-09T13:56:52.200Z,2.60
2024-05-09T13:59:23.448Z,2.70
2024-05-09T14:01:54.644Z,2.55
2024-05-09T14:04:26.193Z,2.65
2024-05-09T14:06:54.719Z,3.13
2024-05-09T14:11:54.229Z,3.67
2024-05-09T14:14:25.514Z,3.10
2024-05-09T14:16:56.632Z,3.40
2024-05-09T14:19:28.225Z,2.95
2024-05-09T14:21:56.634Z,3.35
2024-05-09T14:24:27.791Z,3.92
2024-05-09T14:26:56.148Z,4.03
2024-05-09T14:29:27.351Z,3.10
2024-05-09T14:31:58.287Z,3.35
2024-05-09T14:34:29.803Z,2.92
2024-05-09T14:36:59.054Z,4.75
2024-05-09T14:39:30.311Z,3.13
2024-05-09T14:41:58.624Z,3.25
2024-05-09T14:44:29.776Z,3.03
2024-05-09T14:47:01.115Z,3.33
2024-05-09T14:49:32.535Z,3.65
2024-05-09T14:52:00.869Z,3.42
2024-05-09T14:54:32.173Z,3.38
2024-05-09T14:57:01.154Z,3.92
2024-05-09T14:59:32.400Z,3.72
2024-05-09T15:02:03.676Z,3.40
2024-05-09T15:04:35.076Z,3.70
2024-05-09T15:07:03.655Z,3.83
2024-05-09T15:12:09.520Z,3.67
2024-05-09T15:14:40.800Z,3.35
2024-05-09T15:17:11.905Z,4.68
2024-05-09T15:19:43.501Z,3.88
2024-05-09T15:22:16.489Z,4.70
2024-05-09T15:24:48.611Z,4.50
2024-05-09T15:27:18.692Z,4.60
2024-05-09T15:29:49.934Z,3.83
2024-05-09T15:32:20.881Z,4.45
2024-05-09T15:34:52.129Z,4.15
2024-05-09T15:37:20.768Z,3.85
2024-05-09T15:39:52.443Z,4.07
2024-05-09T15:42:20.870Z,6.88
2024-05-09T15:44:53.209Z,9.75
2024-05-09T15:47:24.454Z,6.47
2024-05-09T15:49:55.912Z,4.53
2024-05-09T15:52:24.343Z,4.75
2024-05-09T15:54:55.596Z,3.78
2024-05-09T15:57:25.200Z,5.45
2024-05-09T15:59:56.458Z,7.55
2024-05-09T16:02:27.567Z,5.43
2024-05-09T16:04:59.082Z,4.50
2024-05-09T16:07:27.533Z,5.40
2024-05-09T16:09:58.825Z,7.53
2024-05-09T16:12:27.131Z,6.25
2024-05-09T16:14:58.479Z,9.38
2024-05-09T16:17:29.593Z,5.60
2024-05-09T16:20:01.140Z,3.55
2024-05-09T16:22:29.515Z,4.30
2024-05-09T16:25:00.744Z,2.97
2024-05-09T16:27:29.418Z,3.03
2024-05-09T16:30:04.191Z,3.80
2024-05-09T16:32:40.987Z,3.00
2024-05-09T16:35:12.427Z,3.60
2024-05-09T16:37:40.740Z,3.60
2024-05-09T16:40:22.014Z,4.10
2024-05-09T16:42:58.824Z,4.15
2024-05-09T16:45:30.701Z,3.72
2024-05-09T16:48:03.116Z,3.65
2024-05-09T16:50:36.016Z,4.43
2024-05-09T16:53:05.983Z,4.15
2024-05-09T16:55:38.583Z,4.20
2024-05-09T16:58:08.567Z,3.88
2024-05-09T17:00:43.396Z,4.20
2024-05-09T17:03:17.275Z,4.35
2024-05-09T17:05:50.759Z,4.10
2024-05-09T17:08:19.989Z,4.07
2024-05-09T17:10:51.564Z,4.05
2024-05-09T17:13:22.962Z,3.95
2024-05-09T17:15:54.482Z,3.83
2024-05-09T17:18:28.474Z,3.72
2024-05-09T17:21:00.102Z,3.78
2024-05-09T17:23:29.222Z,3.80
2024-05-09T17:26:01.282Z,4.07
2024-05-09T17:28:29.916Z,4.78
2024-05-09T17:31:01.333Z,4.13
2024-05-09T17:33:32.454Z,3.50
2024-05-09T17:36:03.986Z,3.70
2024-05-09T17:38:32.271Z,3.70
2024-05-09T17:41:03.593Z,3.90
2024-05-09T17:43:31.842Z,4.05
2024-05-09T17:46:03.793Z,4.22
2024-05-09T17:48:35.068Z,3.72
2024-05-09T17:51:06.562Z,3.92
2024-05-09T17:53:34.718Z,3.88
2024-05-09T17:56:06.266Z,4.00
2024-05-09T17:58:34.473Z,4.18
2024-05-09T18:01:06.273Z,3.75
2024-05-09T18:03:37.482Z,3.55
2024-05-09T18:06:10.182Z,3.65
2024-05-09T18:08:38.484Z,4.72
2024-05-09T18:11:09.764Z,4.18
2024-05-09T18:13:38.156Z,7.70
2024-05-09T18:16:09.934Z,5.78
2024-05-09T18:18:41.527Z,11.13
2024-05-09T18:21:12.906Z,8.10
2024-05-09T18:23:41.134Z,6.45
2024-05-09T18:26:12.544Z,12.88
2024-05-09T18:28:41.155Z,7.65
2024-05-09T18:31:12.400Z,7.20
2024-05-09T18:33:43.298Z,5.82
2024-05-09T18:36:14.627Z,5.15
2024-05-09T18:38:42.948Z,6.05
2024-05-09T18:41:14.520Z,8.73
2024-05-09T18:43:45.412Z,6.40
2024-05-09T18:46:20.068Z,4.25
2024-05-09T18:48:51.918Z,5.07
2024-05-09T18:51:23.500Z,10.50
2024-05-09T18:53:52.614Z,13.90
2024-05-09T18:56:23.929Z,11.57
2024-05-09T18:58:54.951Z,6.55
2024-05-09T19:01:23.561Z,6.00
2024-05-09T19:03:58.198Z,5.40
2024-05-09T19:06:27.019Z,4.13
2024-05-09T19:08:58.755Z,5.22
2024-05-09T19:11:27.565Z,8.30
2024-05-09T19:14:03.696Z,6.85
2024-05-09T19:16:32.404Z,7.63
2024-05-09T19:19:07.638Z,9.07
2024-05-09T19:21:37.961Z,7.72
2024-05-09T19:24:10.546Z,7.15
2024-05-09T19:26:39.313Z,5.18
2024-05-09T19:29:10.327Z,5.63
2024-05-09T19:31:39.087Z,5.88
2024-05-09T19:34:13.229Z,6.70
2024-05-09T19:36:43.285Z,6.55
2024-05-09T19:39:14.619Z,7.00
2024-05-09T19:41:43.435Z,34.35
2024-05-09T19:44:14.193Z,28.92
2024-05-09T19:46:44.251Z,24.30
2024-05-09T19:49:18.331Z,20.25
2024-05-09T19:51:47.143Z,18.73
2024-05-09T19:54:17.982Z,13.85
2024-05-09T19:56:47.873Z,20.23
2024-05-09T19:59:18.737Z,25.48
2024-05-09T20:01:48.470Z,14.40
2024-05-09T20:04:22.358Z,9.38
2024-05-09T20:06:51.842Z,9.80
2024-05-09T20:09:22.635Z,9.13
2024-05-09T20:11:53.139Z,8.70
2024-05-09T20:14:24.134Z,9.55
2024-05-09T20:16:54.118Z,11.27
2024-05-09T20:19:27.661Z,9.30
2024-05-09T20:21:56.516Z,11.98
2024-05-09T20:24:27.307Z,11.50
2024-05-09T20:26:56.093Z,11.43
2024-05-09T20:29:27.290Z,12.77
2024-05-09T20:31:55.966Z,12.32
2024-05-09T20:34:29.450Z,12.73
2024-05-09T20:36:58.157Z,13.27
2024-05-09T20:39:29.562Z,13.27
2024-05-09T20:41:58.523Z,21.20
2024-05-09T20:44:29.509Z,24.95
2024-05-09T20:46:58.251Z,20.77
2024-05-09T20:49:32.555Z,17.77
2024-05-09T20:52:01.496Z,17.63
2024-05-09T20:54:32.669Z,16.38
2024-05-09T20:57:02.954Z,14.35
2024-05-09T20:59:34.213Z,12.90
2024-05-09T21:02:03.054Z,12.93
2024-05-09T21:04:36.949Z,12.80
2024-05-09T21:07:05.912Z,15.02
2024-05-09T21:09:36.757Z,13.40
2024-05-09T21:12:05.835Z,11.73
2024-05-09T21:14:36.995Z,14.02
2024-05-09T21:17:06.016Z,13.65
2024-05-09T21:19:39.673Z,13.63
2024-05-09T21:22:08.360Z,12.68
2024-05-09T21:24:39.316Z,13.23
2024-05-09T21:27:08.056Z,12.98
2024-05-09T21:29:38.991Z,12.88
2024-05-09T21:32:08.307Z,13.43
2024-05-09T21:34:41.805Z,12.02
2024-05-09T21:37:10.861Z,11.80
2024-05-09T21:39:41.843Z,12.93
2024-05-09T21:42:10.536Z,12.55
2024-05-09T21:44:41.295Z,12.10
2024-05-09T21:47:10.112Z,12.68
2024-05-09T21:49:43.833Z,11.80
2024-05-09T21:52:12.914Z,12.35
2024-05-09T21:54:43.792Z,10.95
2024-05-09T21:57:14.624Z,11.07
2024-05-09T21:59:45.403Z,11.43
2024-05-09T22:02:14.163Z,10.63
2024-05-09T22:04:47.903Z,11.60
2024-05-09T22:07:16.877Z,11.52
2024-05-09T22:09:47.942Z,9.77
2024-05-09T22:12:16.678Z,11.32
2024-05-09T22:14:47.429Z,12.68
2024-05-09T22:17:16.410Z,10.00
2024-05-09T22:19:52.500Z,10.07
2024-05-09T22:22:21.473Z,10.73
2024-05-09T22:24:52.399Z,10.27
2024-05-09T22:27:21.115Z,11.43
2024-05-09T22:29:51.892Z,11.00
2024-05-09T22:32:20.715Z,10.10
2024-05-09T22:34:54.315Z,10.35
2024-05-09T22:37:23.173Z,9.40
2024-05-09T22:39:53.962Z,8.85
2024-05-09T22:42:22.601Z,8.50
2024-05-09T22:44:53.520Z,8.35
2024-05-09T22:47:22.224Z,9.05
2024-05-09T22:49:56.033Z,8.73
2024-05-09T22:52:24.712Z,8.35
2024-05-09T22:54:55.560Z,8.75
2024-05-09T22:57:24.226Z,8.93
2024-05-09T22:59:55.073Z,9.35
2024-05-09T23:02:23.983Z,7.97
2024-05-09T23:04:57.495Z,6.65
2024-05-09T23:07:26.376Z,6.57
2024-05-09T23:09:57.289Z,7.10
2024-05-09T23:12:25.891Z,7.72
2024-05-09T23:14:56.674Z,6.13
2024-05-09T23:17:25.554Z,5.85
2024-05-09T23:19:59.062Z,5.68
2024-05-09T23:22:27.764Z,5.25
2024-05-09T23:24:58.548Z,4.60
2024-05-09T23:27:27.286Z,4.43
2024-05-09T23:29:58.511Z,4.13
2024-05-09T23:32:27.848Z,3.55
2024-05-09T23:35:01.587Z,3.97
2024-05-09T23:37:30.396Z,3.75
2024-05-09T23:40:01.380Z,4.00
2024-05-09T23:42:30.540Z,3.38
2024-05-09T23:45:01.355Z,3.50
2024-05-09T23:47:30.221Z,4.78
2024-05-09T23:50:06.713Z,4.28
2024-05-09T23:52:40.120Z,4.30
2024-05-09T23:55:08.567Z,4.13
2024-05-09T23:57:39.810Z,3.80
